Time;durP1;ratioP1;P1;durP2;ratioP2;P2;SDS_P1;SDS_P2;PMS_P1;PMS_P2;Temp;Humidity;BMP_temperature;BMP_pressure;BME280_temperature;BME280_humidity;BME280_pressure;Samples;Min_cycle;Max_cycle;Signal;HPM_P1;HPM_P2
2021/03/22 00:00:20;;;;;;;3.56;2.65;;;;;;;19.09;40.72;100868.61;;;;-58
2021/03/22 00:03:20;;;;;;;3.85;2.64;;;;;;;19.08;40.73;100874.91;;;;-58
2021/03/22 00:06:20;;;;;;;3.82;2.51;;;;;;;19.05;40.69;100873.67;;;;-58
2021/03/22 00:09:20;;;;;;;3.58;2.57;;;;;;;19.04;40.71;100875.19;;;;-57
2021/03/22 00:12:20;;;;;;;3.73;2.62;;;;;;;19.02;40.74;100876.38;;;;-58
2021/03/22 00:15:20;;;;;;;3.90;2.71;;;;;;;19.01;40.75;100871.70;;;;-57
2021/03/22 00:18:20;;;;;;;4.20;2.65;;;;;;;18.98;40.74;100871.03;;;;-58
2021/03/22 00:21:21;;;;;;;4.47;2.55;;;;;;;18.96;40.75;100875.79;;;;-58
2021/03/22 00:24:20;;;;;;;4.47;2.79;;;;;;;18.95;40.71;100871.23;;;;-58
2021/03/22 00:27:20;;;;;;;3.87;2.63;;;;;;;18.93;40.70;100868.69;;;;-58
2021/03/22 00:30:20;;;;;;;3.70;2.55;;;;;;;18.92;40.70;100868.98;;;;-57
2021/03/22 00:33:20;;;;;;;5.01;2.48;;;;;;;18.90;40.78;100872.85;;;;-62
2021/03/22 00:36:20;;;;;;;3.68;2.59;;;;;;;18.89;40.77;100872.13;;;;-62
2021/03/22 00:39:20;;;;;;;3.89;2.39;;;;;;;18.86;40.80;100867.86;;;;-60
2021/03/22 00:42:20;;;;;;;3.01;2.41;;;;;;;18.85;40.80;100872.38;;;;-60
2021/03/22 00:45:20;;;;;;;3.15;2.46;;;;;;;18.83;40.82;100874.46;;;;-57
2021/03/22 00:48:20;;;;;;;3.53;2.44;;;;;;;18.81;40.81;100872.40;;;;-58
2021/03/22 00:51:20;;;;;;;3.86;2.44;;;;;;;18.80;40.79;100874.19;;;;-58
2021/03/22 00:54:20;;;;;;;4.03;2.60;;;;;;;18.78;40.82;100868.95;;;;-58
2021/03/22 00:57:20;;;;;;;4.35;2.56;;;;;;;18.77;40.83;100869.46;;;;-57
2021/03/22 01:00:20;;;;;;;3.61;2.63;;;;;;;18.75;40.84;100870.73;;;;-57
2021/03/22 01:03:20;;;;;;;4.38;2.61;;;;;;;18.74;40.87;100863.06;;;;-58
2021/03/22 01:06:20;;;;;;;4.58;2.48;;;;;;;18.73;40.86;100854.78;;;;-58
2021/03/22 01:09:20;;;;;;;3.65;2.39;;;;;;;18.71;40.85;100847.60;;;;-58
2021/03/22 01:12:20;;;;;;;3.84;2.45;;;;;;;18.68;40.90;100844.00;;;;-57
2021/03/22 01:15:20;;;;;;;3.83;2.41;;;;;;;18.68;40.88;100844.89;;;;-57
2021/03/22 01:18:20;;;;;;;3.09;2.25;;;;;;;18.67;40.86;100843.00;;;;-57
2021/03/22 01:21:20;;;;;;;3.82;2.50;;;;;;;18.64;40.96;100838.98;;;;-57
2021/03/22 01:24:20;;;;;;;2.79;2.10;;;;;;;18.63;40.89;100840.66;;;;-57
2021/03/22 01:27:21;;;;;;;3.38;2.31;;;;;;;18.62;40.89;100839.19;;;;-58
2021/03/22 01:30:20;;;;;;;3.57;2.31;;;;;;;18.62;40.89;100840.73;;;;-57
2021/03/22 01:33:23;;;;;;;3.95;2.52;;;;;;;18.59;40.89;100841.32;;;;-57
2021/03/22 01:36:20;;;;;;;4.05;2.33;;;;;;;18.59;40.94;100832.47;;;;-57
2021/03/22 01:39:20;;;;;;;4.06;2.38;;;;;;;18.57;40.98;100831.50;;;;-57
2021/03/22 01:42:20;;;;;;;3.06;2.21;;;;;;;18.57;40.92;100825.54;;;;-58
2021/03/22 01:45:20;;;;;;;3.66;2.29;;;;;;;18.55;40.91;100825.02;;;;-58
2021/03/22 01:48:20;;;;;;;3.32;2.44;;;;;;;18.54;40.93;100824.38;;;;-57
2021/03/22 01:51:20;;;;;;;3.28;2.29;;;;;;;18.53;40.94;100824.13;;;;-58
2021/03/22 01:54:20;;;;;;;2.89;2.01;;;;;;;18.51;41.01;100825.80;;;;-54
2021/03/22 01:57:20;;;;;;;3.63;2.31;;;;;;;18.51;40.97;100825.84;;;;-52
2021/03/22 02:00:23;;;;;;;3.91;2.48;;;;;;;18.49;40.97;100825.52;;;;-54
2021/03/22 02:03:21;;;;;;;3.51;2.23;;;;;;;18.47;40.97;100820.45;;;;-52
2021/03/22 02:06:20;;;;;;;3.85;2.26;;;;;;;18.47;40.95;100823.13;;;;-54
2021/03/22 02:09:20;;;;;;;3.09;2.15;;;;;;;18.46;40.96;100827.81;;;;-54
2021/03/22 02:12:20;;;;;;;3.43;2.39;;;;;;;18.44;40.96;100828.02;;;;-58
2021/03/22 02:15:20;;;;;;;3.62;2.31;;;;;;;18.43;41.03;100826.72;;;;-59
2021/03/22 02:18:20;;;;;;;2.84;2.23;;;;;;;18.43;40.97;100827.20;;;;-58
2021/03/22 02:21:20;;;;;;;4.46;2.36;;;;;;;18.42;40.91;100834.96;;;;-57
2021/03/22 02:26:20;;;;;;;3.81;2.20;;;;;;;18.40;41.01;100834.44;;;;-58
2021/03/22 02:30:20;;;;;;;3.21;2.15;;;;;;;18.39;40.89;100838.82;;;;-57
2021/03/22 02:34:20;;;;;;;3.13;2.17;;;;;;;18.37;40.95;100839.52;;;;-57
2021/03/22 02:37:20;;;;;;;3.25;2.19;;;;;;;18.37;41.01;100838.14;;;;-58
2021/03/22 02:40:20;;;;;;;3.97;2.29;;;;;;;18.35;41.02;100834.37;;;;-57
2021/03/22 02:43:20;;;;;;;3.18;2.24;;;;;;;18.33;41.00;100830.20;;;;-56
2021/03/22 02:46:20;;;;;;;4.09;2.28;;;;;;;18.32;40.99;100835.27;;;;-56
2021/03/22 02:49:20;;;;;;;3.85;2.31;;;;;;;18.31;40.96;100839.66;;;;-56
2021/03/22 02:52:20;;;;;;;3.00;2.08;;;;;;;18.31;40.94;100839.98;;;;-56
2021/03/22 02:55:20;;;;;;;3.33;2.31;;;;;;;18.30;41.05;100846.11;;;;-58
2021/03/22 02:58:20;;;;;;;4.65;2.29;;;;;;;18.29;40.95;100844.41;;;;-57
2021/03/22 03:01:20;;;;;;;3.53;2.06;;;;;;;18.28;40.92;100845.19;;;;-57
2021/03/22 03:04:20;;;;;;;4.63;2.32;;;;;;;18.27;40.98;100845.34;;;;-58
2021/03/22 03:07:20;;;;;;;3.35;2.21;;;;;;;18.25;41.01;100849.04;;;;-57
2021/03/22 03:10:20;;;;;;;3.27;2.23;;;;;;;18.24;40.95;100845.39;;;;-58
2021/03/22 03:13:20;;;;;;;3.17;2.20;;;;;;;18.24;41.01;100843.41;;;;-58
2021/03/22 03:16:20;;;;;;;3.35;2.27;;;;;;;18.24;40.98;100850.22;;;;-58
2021/03/22 03:19:20;;;;;;;3.57;2.28;;;;;;;18.22;40.96;100855.73;;;;-58
2021/03/22 03:22:20;;;;;;;3.28;2.13;;;;;;;18.21;40.98;100859.43;;;;-55
2021/03/22 03:25:20;;;;;;;3.67;2.14;;;;;;;18.20;41.04;100865.84;;;;-57
2021/03/22 03:28:20;;;;;;;3.75;2.15;;;;;;;18.19;40.99;100867.67;;;;-55
2021/03/22 03:31:20;;;;;;;3.59;2.34;;;;;;;18.18;41.07;100866.12;;;;-56
2021/03/22 03:34:20;;;;;;;3.95;2.28;;;;;;;18.17;41.01;100866.66;;;;-56
2021/03/22 03:37:20;;;;;;;2.85;1.92;;;;;;;18.16;41.02;100865.36;;;;-55
2021/03/22 03:40:20;;;;;;;3.28;2.05;;;;;;;18.16;40.98;100862.52;;;;-57
2021/03/22 03:43:20;;;;;;;3.11;2.21;;;;;;;18.15;41.01;100864.91;;;;-58
2021/03/22 03:46:20;;;;;;;3.48;2.03;;;;;;;18.14;41.01;100864.75;;;;-52
2021/03/22 03:49:20;;;;;;;4.17;2.19;;;;;;;18.13;41.01;100863.50;;;;-62
2021/03/22 03:52:20;;;;;;;3.07;2.09;;;;;;;18.13;41.03;100870.47;;;;-59
2021/03/22 03:55:20;;;;;;;2.75;1.99;;;;;;;18.12;41.08;100866.17;;;;-60
2021/03/22 03:58:20;;;;;;;3.03;2.00;;;;;;;18.11;41.06;100866.46;;;;-59
2021/03/22 04:01:20;;;;;;;3.04;1.96;;;;;;;18.10;41.07;100865.08;;;;-58
2021/03/22 04:04:20;;;;;;;4.09;2.15;;;;;;;18.09;41.08;100860.83;;;;-59
2021/03/22 04:07:20;;;;;;;3.40;2.11;;;;;;;18.08;41.08;100861.72;;;;-57
2021/03/22 04:10:20;;;;;;;2.60;1.97;;;;;;;18.08;41.02;100864.80;;;;-57
2021/03/22 04:13:20;;;;;;;3.45;2.00;;;;;;;18.08;41.01;100868.20;;;;-62
2021/03/22 04:16:20;;;;;;;2.99;1.90;;;;;;;18.06;41.05;100872.47;;;;-60
2021/03/22 04:19:20;;;;;;;3.79;1.97;;;;;;;18.05;41.06;100870.36;;;;-59
2021/03/22 04:22:20;;;;;;;3.63;2.09;;;;;;;18.04;41.06;100874.70;;;;-62
2021/03/22 04:25:20;;;;;;;2.99;2.21;;;;;;;18.03;41.13;100875.19;;;;-61
2021/03/22 04:28:20;;;;;;;3.43;2.21;;;;;;;18.03;41.10;100874.42;;;;-54
2021/03/22 04:31:20;;;;;;;2.67;1.90;;;;;;;18.02;41.03;100871.98;;;;-52
2021/03/22 04:34:20;;;;;;;3.92;2.06;;;;;;;18.01;41.13;100872.84;;;;-53
2021/03/22 04:37:20;;;;;;;2.57;1.92;;;;;;;18.01;41.07;100877.30;;;;-53
2021/03/22 04:40:20;;;;;;;2.47;1.90;;;;;;;17.98;41.14;100879.61;;;;-53
2021/03/22 04:43:20;;;;;;;2.45;1.80;;;;;;;17.98;41.14;100884.31;;;;-52
2021/03/22 04:46:20;;;;;;;3.03;1.84;;;;;;;17.97;41.04;100889.74;;;;-52
2021/03/22 04:49:20;;;;;;;2.67;1.89;;;;;;;17.97;41.13;100886.62;;;;-52
2021/03/22 04:52:20;;;;;;;2.66;1.78;;;;;;;17.97;41.07;100889.79;;;;-53
2021/03/22 04:55:20;;;;;;;2.86;2.03;;;;;;;17.95;41.06;100892.13;;;;-52
2021/03/22 04:58:20;;;;;;;4.16;2.15;;;;;;;17.95;41.11;100893.35;;;;-52
2021/03/22 05:01:20;;;;;;;2.91;1.91;;;;;;;17.94;41.14;100891.77;;;;-52
2021/03/22 05:04:20;;;;;;;3.53;1.90;;;;;;;17.93;41.14;100894.04;;;;-58
2021/03/22 05:07:20;;;;;;;3.10;1.85;;;;;;;17.93;41.21;100895.88;;;;-58
2021/03/22 05:10:20;;;;;;;2.95;1.93;;;;;;;17.92;41.16;100901.87;;;;-58
2021/03/22 05:13:20;;;;;;;3.21;2.03;;;;;;;17.91;41.13;100899.02;;;;-58
2021/03/22 05:16:20;;;;;;;3.09;1.90;;;;;;;17.90;41.10;100901.50;;;;-61
2021/03/22 05:19:20;;;;;;;2.81;1.99;;;;;;;17.90;41.19;100900.37;;;;-58
2021/03/22 05:22:20;;;;;;;3.03;1.89;;;;;;;17.90;41.22;100899.23;;;;-58
2021/03/22 05:25:20;;;;;;;2.88;1.79;;;;;;;17.89;41.17;100903.77;;;;-57
2021/03/22 05:28:20;;;;;;;2.75;1.92;;;;;;;17.87;41.08;100905.92;;;;-58
2021/03/22 05:31:20;;;;;;;3.29;1.85;;;;;;;17.87;41.19;100905.76;;;;-58
2021/03/22 05:34:20;;;;;;;3.01;1.81;;;;;;;17.86;41.05;100898.67;;;;-56
2021/03/22 05:37:20;;;;;;;2.23;1.69;;;;;;;17.86;41.14;100904.18;;;;-56
2021/03/22 05:40:20;;;;;;;3.45;2.05;;;;;;;17.85;41.21;100907.91;;;;-55
2021/03/22 05:43:20;;;;;;;3.81;1.75;;;;;;;17.85;41.13;100911.87;;;;-51
2021/03/22 05:46:20;;;;;;;2.22;1.81;;;;;;;17.83;41.09;100910.62;;;;-52
2021/03/22 05:49:20;;;;;;;2.44;1.88;;;;;;;17.83;41.14;100919.45;;;;-52
2021/03/22 05:52:20;;;;;;;3.61;1.89;;;;;;;17.82;41.21;100925.71;;;;-52
2021/03/22 05:55:20;;;;;;;2.73;1.76;;;;;;;17.82;41.16;100930.66;;;;-51
2021/03/22 05:59:20;;;;;;;3.16;1.89;;;;;;;17.80;41.13;100923.16;;;;-52
2021/03/22 06:02:20;;;;;;;2.67;1.90;;;;;;;17.80;41.14;100926.08;;;;-53
2021/03/22 06:05:20;;;;;;;2.55;1.71;;;;;;;17.80;41.11;100930.94;;;;-53
2021/03/22 06:08:20;;;;;;;2.63;1.83;;;;;;;17.79;41.18;100937.17;;;;-52
2021/03/22 06:11:20;;;;;;;2.27;1.87;;;;;;;17.79;41.21;100939.13;;;;-51
2021/03/22 06:14:20;;;;;;;2.55;1.81;;;;;;;17.79;41.16;100937.82;;;;-51
2021/03/22 06:17:20;;;;;;;7.40;2.61;;;;;;;17.64;39.89;100937.11;;;;-52
2021/03/22 06:20:20;;;;;;;9.29;3.33;;;;;;;17.35;38.83;100942.46;;;;-51
2021/03/22 06:23:21;;;;;;;9.49;3.45;;;;;;;17.14;38.60;100941.63;;;;-60
2021/03/22 06:26:20;;;;;;;10.27;3.36;;;;;;;17.14;39.25;100936.69;;;;-60
2021/03/22 06:29:20;;;;;;;9.71;3.17;;;;;;;17.26;39.74;100939.80;;;;-58
2021/03/22 06:32:20;;;;;;;7.18;2.77;;;;;;;17.37;39.96;100950.09;;;;-57
2021/03/22 06:35:20;;;;;;;6.96;2.70;;;;;;;17.45;40.07;100950.69;;;;-58
2021/03/22 06:38:20;;;;;;;7.83;2.71;;;;;;;17.52;40.18;100954.50;;;;-58
2021/03/22 06:41:20;;;;;;;5.46;2.56;;;;;;;17.58;40.35;100957.88;;;;-57
2021/03/22 06:44:20;;;;;;;6.56;2.70;;;;;;;17.64;40.37;100956.56;;;;-58
2021/03/22 06:47:20;;;;;;;4.93;2.39;;;;;;;17.70;40.36;100953.94;;;;-58
2021/03/22 06:50:20;;;;;;;5.23;2.39;;;;;;;17.76;40.37;100955.25;;;;-58
2021/03/22 06:53:20;;;;;;;5.42;2.61;;;;;;;17.82;40.43;100953.36;;;;-58
2021/03/22 06:56:20;;;;;;;5.71;2.58;;;;;;;17.90;40.49;100957.94;;;;-59
2021/03/22 06:59:21;;;;;;;6.33;2.40;;;;;;;17.95;40.49;100962.41;;;;-59
2021/03/22 07:02:20;;;;;;;5.61;2.53;;;;;;;18.00;40.61;100959.13;;;;-57
2021/03/22 07:05:20;;;;;;;4.84;2.42;;;;;;;18.04;40.63;100957.09;;;;-58
2021/03/22 07:08:21;;;;;;;6.86;2.30;;;;;;;18.09;40.69;100961.72;;;;-57
2021/03/22 07:11:20;;;;;;;5.09;2.34;;;;;;;18.13;40.69;100962.30;;;;-59
2021/03/22 07:14:20;;;;;;;5.19;2.29;;;;;;;18.15;40.71;100965.66;;;;-58
2021/03/22 07:17:21;;;;;;;5.59;2.41;;;;;;;18.18;40.85;100965.73;;;;-58
2021/03/22 07:20:20;;;;;;;4.12;2.17;;;;;;;18.20;40.81;100970.05;;;;-51
2021/03/22 07:23:20;;;;;;;6.03;2.33;;;;;;;18.22;40.84;100968.58;;;;-51
2021/03/22 07:26:20;;;;;;;4.04;2.13;;;;;;;18.23;40.86;100967.85;;;;-51
2021/03/22 07:29:20;;;;;;;5.11;2.32;;;;;;;18.24;40.78;100972.11;;;;-51
2021/03/22 07:33:20;;;;;;;4.20;2.29;;;;;;;18.26;40.86;100974.06;;;;-52
2021/03/22 07:36:21;;;;;;;3.67;1.90;;;;;;;18.27;40.80;100975.15;;;;-51
2021/03/22 07:39:20;;;;;;;4.04;2.19;;;;;;;18.28;40.77;100981.11;;;;-51
2021/03/22 07:42:20;;;;;;;3.15;2.10;;;;;;;18.28;40.83;100981.19;;;;-51
2021/03/22 07:45:20;;;;;;;4.07;1.99;;;;;;;18.27;40.85;100986.67;;;;-51
2021/03/22 07:50:20;;;;;;;2.78;1.90;;;;;;;18.28;40.84;100994.98;;;;-51
2021/03/22 07:53:20;;;;;;;3.47;1.99;;;;;;;18.28;40.85;100995.03;;;;-51
2021/03/22 07:56:20;;;;;;;4.19;2.04;;;;;;;18.28;40.85;100996.17;;;;-51
2021/03/22 07:59:20;;;;;;;3.94;2.08;;;;;;;18.28;40.84;100993.41;;;;-51
2021/03/22 08:02:20;;;;;;;3.19;1.89;;;;;;;18.29;40.86;100999.61;;;;-58
2021/03/22 08:05:20;;;;;;;4.75;1.94;;;;;;;18.28;40.88;100999.98;;;;-58
2021/03/22 08:08:20;;;;;;;3.67;2.01;;;;;;;18.27;40.76;101000.38;;;;-50
2021/03/22 08:11:20;;;;;;;4.16;1.99;;;;;;;18.28;40.77;101001.28;;;;-51
2021/03/22 08:14:20;;;;;;;2.99;1.86;;;;;;;18.27;40.76;101003.63;;;;-58
2021/03/22 08:17:20;;;;;;;2.89;1.82;;;;;;;18.25;40.83;101001.64;;;;-51
2021/03/22 08:20:21;;;;;;;3.47;1.98;;;;;;;18.26;40.81;101003.75;;;;-61
2021/03/22 08:23:20;;;;;;;3.75;1.87;;;;;;;18.25;40.79;101006.10;;;;-60
2021/03/22 08:26:20;;;;;;;3.26;1.77;;;;;;;18.24;40.85;101011.94;;;;-61
2021/03/22 08:29:20;;;;;;;3.25;1.85;;;;;;;18.25;40.83;101018.27;;;;-61
2021/03/22 08:32:20;;;;;;;2.91;1.82;;;;;;;18.24;40.83;101016.86;;;;-52
2021/03/22 08:35:20;;;;;;;3.35;2.04;;;;;;;18.23;40.80;101020.91;;;;-59
2021/03/22 08:38:20;;;;;;;3.10;1.83;;;;;;;18.22;40.89;101020.26;;;;-60
2021/03/22 08:41:20;;;;;;;2.71;1.92;;;;;;;18.22;40.89;101027.23;;;;-61
2021/03/22 08:44:20;;;;;;;3.14;1.91;;;;;;;18.21;40.84;101027.77;;;;-58
2021/03/22 08:47:20;;;;;;;2.67;1.77;;;;;;;18.21;40.82;101036.12;;;;-59
2021/03/22 08:50:20;;;;;;;2.99;1.87;;;;;;;18.21;40.83;101034.41;;;;-59
2021/03/22 08:53:20;;;;;;;4.49;2.03;;;;;;;18.19;40.83;101034.62;;;;-58
2021/03/22 08:56:20;;;;;;;5.12;2.06;;;;;;;18.20;41.31;101032.67;;;;-54
2021/03/22 08:59:20;;;;;;;8.19;1.96;;;;;;;18.23;41.34;101033.41;;;;-59
2021/03/22 09:02:21;;;;;;;5.81;2.47;;;;;;;18.25;41.54;101038.80;;;;-57
2021/03/22 09:05:20;;;;;;;3.97;1.99;;;;;;;18.28;41.42;101042.94;;;;-51
2021/03/22 09:08:20;;;;;;;4.70;2.13;;;;;;;18.36;41.65;101045.78;;;;-52
2021/03/22 09:11:20;;;;;;;3.44;1.82;;;;;;;18.41;41.80;101047.08;;;;-54
2021/03/22 09:14:20;;;;;;;5.05;2.01;;;;;;;18.48;42.07;101050.95;;;;-52
2021/03/22 09:17:20;;;;;;;3.99;1.90;;;;;;;18.56;41.72;101049.97;;;;-59
2021/03/22 09:21:20;;;;;;;5.42;2.09;;;;;;;18.61;41.84;101048.92;;;;-58
2021/03/22 09:24:20;;;;;;;3.15;2.01;;;;;;;18.68;42.05;101049.64;;;;-57
2021/03/22 09:27:20;;;;;;;3.69;1.83;;;;;;;18.74;41.93;101050.24;;;;-54
2021/03/22 09:30:20;;;;;;;4.42;1.81;;;;;;;18.79;41.93;101054.50;;;;-54
2021/03/22 09:33:20;;;;;;;3.24;1.80;;;;;;;18.85;41.92;101056.96;;;;-53
2021/03/22 09:36:20;;;;;;;3.45;1.77;;;;;;;18.89;42.08;101052.49;;;;-54
2021/03/22 09:39:20;;;;;;;3.67;1.92;;;;;;;18.95;42.06;101055.69;;;;-59
2021/03/22 09:42:20;;;;;;;3.53;2.05;;;;;;;18.99;42.16;101062.50;;;;-59
2021/03/22 09:45:20;;;;;;;3.79;2.09;;;;;;;19.04;42.15;101068.35;;;;-59
2021/03/22 09:48:20;;;;;;;4.59;2.04;;;;;;;19.09;42.06;101071.92;;;;-58
2021/03/22 09:51:20;;;;;;;2.94;1.73;;;;;;;19.12;42.00;101065.89;;;;-59
2021/03/22 09:54:20;;;;;;;2.85;1.80;;;;;;;19.15;41.80;101064.14;;;;-58
2021/03/22 09:57:20;;;;;;;2.82;1.80;;;;;;;19.20;41.91;101063.69;;;;-55
2021/03/22 10:00:20;;;;;;;2.26;1.53;;;;;;;19.22;41.73;101065.09;;;;-57
2021/03/22 10:05:21;;;;;;;2.29;1.60;;;;;;;19.28;41.92;101064.14;;;;-54
2021/03/22 10:08:20;;;;;;;2.49;1.60;;;;;;;19.32;41.83;101071.94;;;;-56
2021/03/22 10:11:20;;;;;;;2.55;1.65;;;;;;;19.35;42.04;101074.17;;;;-56
2021/03/22 10:14:20;;;;;;;3.32;1.48;;;;;;;19.38;41.91;101071.77;;;;-53
2021/03/22 10:17:20;;;;;;;2.45;1.79;;;;;;;19.40;41.87;101071.72;;;;-60
2021/03/22 10:20:20;;;;;;;3.64;1.67;;;;;;;19.45;42.09;101072.30;;;;-60
2021/03/22 10:23:20;;;;;;;2.01;1.60;;;;;;;19.49;42.16;101073.11;;;;-54
2021/03/22 10:26:20;;;;;;;2.87;1.68;;;;;;;19.53;42.06;101072.98;;;;-53
2021/03/22 10:29:20;;;;;;;3.86;1.71;;;;;;;19.53;41.77;101069.51;;;;-56
2021/03/22 10:32:24;;;;;;;3.52;1.91;;;;;;;19.52;41.63;101066.63;;;;-55
2021/03/22 10:35:20;;;;;;;3.63;1.90;;;;;;;19.52;41.22;101073.63;;;;-58
2021/03/22 10:38:20;;;;;;;5.73;2.05;;;;;;;19.57;41.41;101071.69;;;;-55
2021/03/22 10:41:20;;;;;;;3.54;1.79;;;;;;;19.57;41.28;101072.06;;;;-55
2021/03/22 10:44:20;;;;;;;3.71;1.79;;;;;;;19.55;41.22;101073.12;;;;-55
2021/03/22 10:47:20;;;;;;;4.38;1.83;;;;;;;19.56;41.13;101077.19;;;;-56
2021/03/22 10:50:20;;;;;;;2.83;1.67;;;;;;;19.56;41.03;101072.72;;;;-57
2021/03/22 10:53:20;;;;;;;7.90;1.78;;;;;;;19.52;40.83;101080.61;;;;-57
2021/03/22 10:56:20;;;;;;;4.78;2.27;;;;;;;19.20;39.19;101077.66;;;;-53
2021/03/22 10:59:20;;;;;;;3.95;2.49;;;;;;;19.00;38.54;101073.31;;;;-50
2021/03/22 11:02:20;;;;;;;4.32;2.53;;;;;;;18.80;38.15;101070.28;;;;-65
2021/03/22 11:05:20;;;;;;;4.41;2.47;;;;;;;18.77;38.42;101071.97;;;;-51
2021/03/22 11:08:20;;;;;;;6.21;2.45;;;;;;;18.93;38.91;101071.25;;;;-52
2021/03/22 11:11:20;;;;;;;6.39;2.46;;;;;;;19.06;39.34;101075.05;;;;-55
2021/03/22 11:14:20;;;;;;;4.56;1.83;;;;;;;19.15;39.79;101075.36;;;;-57
2021/03/22 11:17:21;;;;;;;4.34;2.07;;;;;;;19.23;39.94;101076.23;;;;-57
2021/03/22 11:20:20;;;;;;;2.72;1.89;;;;;;;19.32;40.11;101076.70;;;;-46
2021/03/22 11:23:26;;;;;;;3.68;1.81;;;;;;;19.40;40.16;101074.23;;;;-56
2021/03/22 11:26:21;;;;;;;3.65;1.79;;;;;;;19.43;40.43;101078.36;;;;-54
2021/03/22 11:29:20;;;;;;;3.36;1.74;;;;;;;19.48;40.50;101083.48;;;;-53
2021/03/22 11:32:20;;;;;;;2.16;1.60;;;;;;;19.53;40.41;101079.34;;;;-50
2021/03/22 11:35:20;;;;;;;2.85;1.70;;;;;;;19.60;40.52;101076.11;;;;-57
2021/03/22 11:38:20;;;;;;;3.50;1.80;;;;;;;19.63;40.56;101069.55;;;;-53
2021/03/22 11:41:20;;;;;;;3.18;1.67;;;;;;;19.66;40.61;101065.72;;;;-56
2021/03/22 11:44:20;;;;;;;4.50;1.87;;;;;;;19.72;40.62;101055.84;;;;-50
2021/03/22 11:47:20;;;;;;;4.61;1.90;;;;;;;19.70;40.29;101057.25;;;;-50
2021/03/22 11:50:20;;;;;;;2.87;1.61;;;;;;;19.68;40.23;101059.57;;;;-48
2021/03/22 11:53:21;;;;;;;3.87;1.81;;;;;;;19.68;40.34;101061.93;;;;-48
2021/03/22 11:56:24;;;;;;;2.69;1.57;;;;;;;19.67;40.27;101059.57;;;;-51
2021/03/22 11:59:21;;;;;;;5.35;1.77;;;;;;;19.67;40.34;101059.41;;;;-51
2021/03/22 12:02:20;;;;;;;2.18;1.54;;;;;;;19.67;40.30;101060.38;;;;-51
2021/03/22 12:05:20;;;;;;;2.53;1.57;;;;;;;19.68;40.34;101061.60;;;;-50
2021/03/22 12:08:20;;;;;;;3.32;1.79;;;;;;;19.68;40.44;101057.05;;;;-51
2021/03/22 12:11:20;;;;;;;2.48;1.48;;;;;;;19.69;40.37;101058.76;;;;-50
2021/03/22 12:14:20;;;;;;;2.50;1.65;;;;;;;19.70;40.42;101057.11;;;;-51
2021/03/22 12:17:20;;;;;;;2.13;1.45;;;;;;;19.71;40.37;101055.81;;;;-51
2021/03/22 12:20:20;;;;;;;1.84;1.47;;;;;;;19.72;40.37;101054.30;;;;-51
2021/03/22 12:23:20;;;;;;;1.89;1.49;;;;;;;19.73;40.33;101055.11;;;;-51
2021/03/22 12:26:20;;;;;;;2.17;1.59;;;;;;;19.75;40.36;101059.05;;;;-47
2021/03/22 12:29:20;;;;;;;2.13;1.49;;;;;;;19.76;40.33;101063.38;;;;-50
2021/03/22 12:32:20;;;;;;;1.77;1.33;;;;;;;19.77;40.36;101057.77;;;;-50
2021/03/22 12:35:20;;;;;;;2.33;1.56;;;;;;;19.78;40.32;101061.05;;;;-50
2021/03/22 12:38:20;;;;;;;1.90;1.50;;;;;;;19.79;40.35;101059.67;;;;-50
2021/03/22 12:41:20;;;;;;;2.77;1.53;;;;;;;19.80;40.41;101054.74;;;;-50
2021/03/22 12:44:20;;;;;;;1.94;1.50;;;;;;;19.82;40.31;101056.56;;;;-50
2021/03/22 12:47:20;;;;;;;1.52;1.36;;;;;;;19.84;40.42;101059.25;;;;-51
2021/03/22 12:50:20;;;;;;;2.06;1.40;;;;;;;19.83;40.37;101055.58;;;;-51
2021/03/22 12:53:20;;;;;;;1.76;1.40;;;;;;;19.91;40.59;101052.86;;;;-55
2021/03/22 12:56:20;;;;;;;1.82;1.42;;;;;;;19.96;40.86;101046.65;;;;-53
2021/03/22 12:59:20;;;;;;;2.21;1.50;;;;;;;20.00;40.96;101047.59;;;;-48
2021/03/22 13:02:20;;;;;;;2.45;1.56;;;;;;;20.02;40.97;101047.22;;;;-59
2021/03/22 13:05:20;;;;;;;2.81;1.46;;;;;;;20.08;41.06;101049.34;;;;-50
2021/03/22 13:08:20;;;;;;;2.03;1.49;;;;;;;20.07;41.32;101047.47;;;;-56
2021/03/22 13:11:20;;;;;;;2.57;1.57;;;;;;;20.06;39.99;101047.60;;;;-61
2021/03/22 13:14:20;;;;;;;3.52;1.67;;;;;;;20.06;40.08;101047.44;;;;-58
2021/03/22 13:17:20;;;;;;;2.09;1.59;;;;;;;20.06;40.02;101048.66;;;;-64
2021/03/22 13:20:20;;;;;;;4.60;1.67;;;;;;;20.08;40.16;101049.50;;;;-53
2021/03/22 13:23:20;;;;;;;1.88;1.57;;;;;;;20.09;40.19;101048.88;;;;-57
2021/03/22 13:26:21;;;;;;;2.67;1.37;;;;;;;20.10;40.32;101047.58;;;;-58
2021/03/22 13:29:20;;;;;;;6.49;1.67;;;;;;;20.12;40.92;101051.51;;;;-56
2021/03/22 13:32:20;;;;;;;4.85;1.51;;;;;;;20.18;41.29;101050.94;;;;-51
2021/03/22 13:35:20;;;;;;;2.57;1.65;;;;;;;20.21;41.69;101051.23;;;;-55
2021/03/22 13:38:20;;;;;;;6.19;1.67;;;;;;;20.24;41.88;101044.83;;;;-58
2021/03/22 13:41:20;;;;;;;3.17;1.66;;;;;;;20.25;41.75;101046.41;;;;-53
2021/03/22 13:44:20;;;;;;;2.38;1.54;;;;;;;20.27;41.88;101050.06;;;;-61
2021/03/22 13:47:20;;;;;;;6.11;1.61;;;;;;;20.30;42.14;101051.26;;;;-54
2021/03/22 13:50:20;;;;;;;5.25;1.67;;;;;;;20.34;42.14;101048.46;;;;-51
2021/03/22 13:53:20;;;;;;;2.97;1.57;;;;;;;20.36;42.20;101051.91;;;;-56
2021/03/22 13:56:20;;;;;;;5.28;1.75;;;;;;;20.38;42.46;101055.75;;;;-50
2021/03/22 13:59:21;;;;;;;11.25;1.83;;;;;;;20.42;42.34;101056.67;;;;-59
2021/03/22 14:02:20;;;;;;;5.93;1.71;;;;;;;20.43;42.40;101057.19;;;;-51
2021/03/22 14:05:20;;;;;;;4.20;1.42;;;;;;;20.45;42.58;101060.47;;;;-54
2021/03/22 14:08:20;;;;;;;6.77;1.63;;;;;;;20.49;42.39;101060.27;;;;-51
2021/03/22 14:11:20;;;;;;;4.15;1.48;;;;;;;20.53;42.52;101058.70;;;;-54
2021/03/22 14:14:20;;;;;;;16.95;2.06;;;;;;;20.54;42.44;101064.91;;;;-62
2021/03/22 14:17:20;;;;;;;12.47;1.95;;;;;;;20.60;43.31;101064.00;;;;-62
2021/03/22 14:20:20;;;;;;;6.81;1.61;;;;;;;20.65;43.09;101068.07;;;;-56
2021/03/22 14:23:20;;;;;;;12.92;1.81;;;;;;;20.68;42.91;101063.85;;;;-51
2021/03/22 14:26:20;;;;;;;8.53;1.74;;;;;;;20.70;42.71;101060.21;;;;-53
2021/03/22 14:29:20;;;;;;;6.55;1.83;;;;;;;20.71;43.06;101067.48;;;;-55
2021/03/22 14:32:20;;;;;;;21.12;2.29;;;;;;;20.72;42.24;101065.28;;;;-53
2021/03/22 14:35:20;;;;;;;16.17;1.95;;;;;;;20.72;41.83;101065.20;;;;-55
2021/03/22 14:38:20;;;;;;;9.43;2.10;;;;;;;20.62;40.70;101067.94;;;;-51
2021/03/22 14:41:20;;;;;;;5.63;1.84;;;;;;;20.57;40.37;101067.86;;;;-54
2021/03/22 14:44:21;;;;;;;5.41;1.93;;;;;;;20.56;40.39;101065.55;;;;-51
2021/03/22 14:47:20;;;;;;;4.64;1.62;;;;;;;20.57;40.71;101064.11;;;;-55
2021/03/22 14:50:21;;;;;;;5.01;1.73;;;;;;;20.59;41.08;101064.73;;;;-56
2021/03/22 14:53:22;;;;;;;5.53;1.53;;;;;;;20.58;41.08;101064.14;;;;-52
2021/03/22 14:56:21;;;;;;;3.67;1.49;;;;;;;20.57;41.04;101053.53;;;;-53
2021/03/22 14:59:20;;;;;;;2.87;1.49;;;;;;;20.61;40.97;101053.69;;;;-52
2021/03/22 15:02:20;;;;;;;7.06;1.79;;;;;;;20.58;40.94;101055.67;;;;-47
2021/03/22 15:05:20;;;;;;;6.70;1.80;;;;;;;20.59;41.00;101053.83;;;;-53
2021/03/22 15:08:20;;;;;;;3.85;1.67;;;;;;;20.59;41.06;101058.88;;;;-57
2021/03/22 15:11:20;;;;;;;3.07;1.65;;;;;;;20.61;41.12;101057.81;;;;-59
2021/03/22 15:14:20;;;;;;;3.67;1.57;;;;;;;20.61;41.09;101052.47;;;;-50
2021/03/22 15:17:20;;;;;;;4.66;1.58;;;;;;;20.64;41.12;101052.48;;;;-57
2021/03/22 15:20:21;;;;;;;4.91;1.79;;;;;;;20.62;40.92;101053.77;;;;-57
2021/03/22 15:23:20;;;;;;;2.50;1.47;;;;;;;20.60;40.75;101053.74;;;;-57
2021/03/22 15:26:20;;;;;;;5.59;1.51;;;;;;;20.56;40.68;101054.56;;;;-58
2021/03/22 15:29:20;;;;;;;3.19;1.51;;;;;;;20.56;40.66;101054.56;;;;-57
2021/03/22 15:32:20;;;;;;;3.19;1.57;;;;;;;20.55;40.66;101053.51;;;;-58
2021/03/22 15:35:20;;;;;;;2.53;1.53;;;;;;;20.53;40.62;101052.02;;;;-57
2021/03/22 15:38:20;;;;;;;2.93;1.50;;;;;;;20.53;40.70;101055.77;;;;-55
2021/03/22 15:41:20;;;;;;;2.54;1.54;;;;;;;20.56;40.53;101055.70;;;;-55
2021/03/22 15:44:20;;;;;;;3.57;1.51;;;;;;;20.56;40.58;101057.50;;;;-56
2021/03/22 15:47:20;;;;;;;2.09;1.44;;;;;;;20.55;40.59;101061.57;;;;-56
2021/03/22 15:50:20;;;;;;;2.68;1.54;;;;;;;20.54;40.60;101060.64;;;;-56
2021/03/22 15:53:20;;;;;;;1.72;1.33;;;;;;;20.54;40.60;101061.63;;;;-56
2021/03/22 15:56:20;;;;;;;2.95;1.43;;;;;;;20.54;40.63;101068.70;;;;-56
2021/03/22 15:59:20;;;;;;;4.18;1.67;;;;;;;20.53;40.15;101070.02;;;;-52
2021/03/22 16:02:20;;;;;;;6.15;2.03;;;;;;;20.46;39.70;101071.24;;;;-52
2021/03/22 16:05:21;;;;;;;4.55;1.83;;;;;;;20.49;40.14;101078.43;;;;-52
2021/03/22 16:08:20;;;;;;;5.41;1.81;;;;;;;20.54;40.26;101079.78;;;;-55
2021/03/22 16:11:20;;;;;;;4.56;1.58;;;;;;;20.55;40.24;101077.28;;;;-58
2021/03/22 16:14:20;;;;;;;7.74;1.76;;;;;;;20.53;40.16;101081.00;;;;-58
2021/03/22 16:17:20;;;;;;;4.15;1.75;;;;;;;20.52;40.24;101083.61;;;;-54
2021/03/22 16:20:20;;;;;;;5.02;1.56;;;;;;;20.52;39.99;101086.11;;;;-54
2021/03/22 16:23:21;;;;;;;4.39;1.81;;;;;;;20.52;40.03;101087.49;;;;-54
2021/03/22 16:26:20;;;;;;;2.97;1.56;;;;;;;20.52;40.04;101091.64;;;;-54
2021/03/22 16:29:20;;;;;;;2.89;1.60;;;;;;;20.51;40.19;101092.87;;;;-56
2021/03/22 16:32:20;;;;;;;5.63;1.91;;;;;;;20.52;40.70;101100.28;;;;-53
2021/03/22 16:35:20;;;;;;;10.85;1.93;;;;;;;20.54;40.91;101105.19;;;;-55
2021/03/22 16:38:20;;;;;;;4.50;1.91;;;;;;;20.53;40.54;101102.09;;;;-60
2021/03/22 16:41:20;;;;;;;5.95;1.77;;;;;;;20.53;40.39;101112.19;;;;-60
2021/03/22 16:44:20;;;;;;;3.09;1.70;;;;;;;20.51;40.40;101110.22;;;;-60
2021/03/22 16:47:20;;;;;;;2.23;1.55;;;;;;;20.50;40.40;101113.23;;;;-59
2021/03/22 16:50:20;;;;;;;4.73;1.53;;;;;;;20.50;40.28;101109.97;;;;-60